createdAt,value
2023-05-06T00:00:00.710Z,101614.72
2023-05-06T00:02:29.379Z,101614.72
2023-05-06T00:04:55.956Z,101621.75
2023-05-06T00:07:22.543Z,101617.31
2023-05-06T00:09:51.309Z,101617.31
2023-05-06T00:12:27.019Z,101611.09
2023-05-06T00:14:53.539Z,101614.59
2023-05-06T00:17:20.105Z,101611.03
2023-05-06T00:19:49.525Z,101611.03
2023-05-06T00:22:15.923Z,101610.13
2023-05-06T00:24:43.689Z,101610.13
2023-05-06T00:27:10.206Z,101611.88
2023-05-06T00:29:36.939Z,101604.78
2023-05-06T00:32:03.798Z,101608.31
2023-05-06T00:34:32.990Z,101611.81
2023-05-06T00:36:59.501Z,101607.38
2023-05-06T00:39:26.692Z,101598.53
2023-05-06T00:41:53.148Z,101597.66
2023-05-06T00:44:19.678Z,101607.31
2023-05-06T00:46:48.960Z,101603.75
2023-05-06T00:49:15.399Z,101598.44
2023-05-06T00:51:41.806Z,101598.44
2023-05-06T00:54:08.316Z,101598.41
2023-05-06T00:56:41.863Z,101594.84
2023-05-06T00:59:08.283Z,101586.91
2023-05-06T01:01:34.839Z,101595.69
2023-05-06T01:04:01.645Z,101591.22
2023-05-06T01:06:43.495Z,101598.25
2023-05-06T01:09:31.869Z,101581.47
2023-05-06T01:12:17.048Z,101584.97
2023-05-06T01:15:08.785Z,101590.19
2023-05-06T01:17:46.344Z,101585.75
2023-05-06T01:20:13.355Z,101586.59
2023-05-06T01:22:39.966Z,101580.41
2023-05-06T01:25:06.881Z,101575.13
2023-05-06T01:27:33.488Z,101576.88
2023-05-06T01:30:00.744Z,101578.63
2023-05-06T01:32:33.287Z,101580.38
2023-05-06T01:35:17.021Z,101580.38
2023-05-06T01:38:15.866Z,101584.75
2023-05-06T01:40:44.264Z,101562.59
2023-05-06T01:43:12.466Z,101573.22
2023-05-06T01:45:40.588Z,101566.13
2023-05-06T01:48:07.509Z,101564.38
2023-05-06T01:50:35.339Z,101573.13
2023-05-06T01:53:03.327Z,101574.84
2023-05-06T01:55:29.960Z,101570.38
2023-05-06T01:57:56.799Z,101570.28
2023-05-06T02:00:25.032Z,101581.75
2023-05-06T02:02:51.800Z,101582.63
2023-05-06T02:05:18.581Z,101586.97
2023-05-06T02:07:45.029Z,101592.25
2023-05-06T02:10:11.568Z,101589.59
2023-05-06T02:12:38.043Z,101583.38
2023-05-06T02:15:04.941Z,101593.88
2023-05-06T02:17:31.379Z,101593.00
2023-05-06T02:19:57.843Z,101595.66
2023-05-06T02:22:24.312Z,101599.13
2023-05-06T02:24:58.057Z,101602.66
2023-05-06T02:27:24.474Z,101598.25
2023-05-06T02:29:53.376Z,101598.22
2023-05-06T02:32:19.882Z,101594.75
2023-05-06T02:34:53.196Z,101594.72
2023-05-06T02:37:19.578Z,101591.16
2023-05-06T02:39:46.003Z,101592.81
2023-05-06T02:42:16.086Z,101595.41
2023-05-06T02:44:42.750Z,101599.78
2023-05-06T02:47:09.395Z,101597.97
2023-05-06T02:49:38.545Z,101589.16
2023-05-06T02:52:05.095Z,101590.91
2023-05-06T02:54:31.433Z,101591.75
2023-05-06T02:56:57.874Z,101593.50
2023-05-06T02:59:24.339Z,101590.88
2023-05-06T03:01:53.798Z,101595.31
2023-05-06T03:04:21.217Z,101590.06
2023-05-06T03:06:47.778Z,101597.97
2023-05-06T03:09:15.517Z,101586.53
2023-05-06T03:11:41.917Z,101585.63
2023-05-06T03:14:08.353Z,101581.25
2023-05-06T03:16:34.824Z,101587.41
2023-05-06T03:19:03.616Z,101592.63
2023-05-06T03:21:30.587Z,101576.81
2023-05-06T03:23:57.925Z,101577.69
2023-05-06T03:26:24.416Z,101583.84
2023-05-06T03:28:50.931Z,101575.91
2023-05-06T03:31:17.362Z,101586.47
2023-05-06T03:33:43.842Z,101582.91
2023-05-06T03:36:10.222Z,101585.47
2023-05-06T03:38:36.922Z,101580.16
2023-05-06T03:41:06.059Z,101575.72
2023-05-06T03:43:32.852Z,101581.78
2023-05-06T03:45:59.569Z,101575.59
2023-05-06T03:48:25.990Z,101576.44
2023-05-06T03:50:55.377Z,101583.38
2023-05-06T03:53:21.812Z,101584.16
2023-05-06T03:55:48.264Z,101586.81
2023-05-06T03:58:14.627Z,101585.09
2023-05-06T04:00:41.452Z,101590.34
2023-05-06T04:03:07.945Z,101590.34
2023-05-06T04:05:34.453Z,101586.03
2023-05-06T04:08:00.859Z,101590.41
2023-05-06T04:10:30.004Z,101594.81
2023-05-06T04:12:56.448Z,101589.50
2023-05-06T04:15:23.308Z,101580.72
2023-05-06T04:17:49.694Z,101585.13
2023-05-06T04:20:16.335Z,101579.81
2023-05-06T04:22:42.901Z,101588.59
2023-05-06T04:25:09.848Z,101588.59
2023-05-06T04:27:36.542Z,101592.06
2023-05-06T04:30:03.213Z,101596.44
2023-05-06T04:32:34.112Z,101598.22
2023-05-06T04:35:00.639Z,101598.16
2023-05-06T04:37:28.276Z,101607.88
2023-05-06T04:39:55.790Z,101607.94
2023-05-06T04:42:22.207Z,101609.78
2023-05-06T04:44:49.156Z,101614.28
2023-05-06T04:47:16.381Z,101609.94
2023-05-06T04:49:45.211Z,101610.00
2023-05-06T04:52:11.652Z,101612.72
2023-05-06T04:54:38.055Z,101627.75
2023-05-06T04:57:04.577Z,101627.88
2023-05-06T04:59:31.002Z,101628.88
2023-05-06T05:01:57.390Z,101631.66
2023-05-06T05:04:23.761Z,101634.41
2023-05-06T05:06:50.221Z,101628.31
2023-05-06T05:09:21.841Z,101631.94
2023-05-06T05:11:48.256Z,101629.44
2023-05-06T05:14:17.177Z,101634.84
2023-05-06T05:16:43.680Z,101643.75
2023-05-06T05:19:10.136Z,101635.91
2023-05-06T05:21:38.519Z,101648.28
2023-05-06T05:24:05.162Z,101646.59
2023-05-06T05:26:31.705Z,101642.28
2023-05-06T05:28:59.302Z,101642.38
2023-05-06T05:31:25.927Z,101638.03
2023-05-06T05:33:52.717Z,101645.13
2023-05-06T05:36:23.109Z,101635.47
2023-05-06T05:38:50.283Z,101636.44
2023-05-06T05:41:17.543Z,101641.78
2023-05-06T05:43:44.209Z,101647.13
2023-05-06T05:46:10.792Z,101647.16
2023-05-06T05:48:39.723Z,101637.47
2023-05-06T05:51:06.253Z,101649.84
2023-05-06T05:53:32.794Z,101648.94
2023-05-06T05:55:59.235Z,101644.63
2023-05-06T05:58:25.697Z,101644.63
2023-05-06T06:00:57.095Z,101642.00
2023-05-06T06:03:23.697Z,101634.97
2023-05-06T06:05:52.781Z,101642.00
2023-05-06T06:08:19.276Z,101641.16
2023-05-06T06:10:46.326Z,101642.94
2023-05-06T06:13:13.451Z,101646.47
2023-05-06T06:15:40.379Z,101649.13
2023-05-06T06:18:08.731Z,101646.53
2023-05-06T06:20:35.842Z,101642.13
2023-05-06T06:23:02.475Z,101647.47
2023-05-06T06:25:29.009Z,101640.41
2023-05-06T06:27:56.527Z,101641.34
2023-05-06T06:30:23.132Z,101636.94
2023-05-06T06:32:53.674Z,101651.09
2023-05-06T06:35:20.644Z,101646.69
2023-05-06T06:37:47.376Z,101642.34
2023-05-06T06:40:14.196Z,101644.09
2023-05-06T06:42:40.715Z,101652.03
2023-05-06T06:45:09.209Z,101649.38
2023-05-06T06:47:36.121Z,101657.28
2023-05-06T06:50:03.958Z,101651.94
2023-05-06T06:52:30.507Z,101651.91
2023-05-06T06:54:56.855Z,101647.41
2023-05-06T06:57:23.245Z,101647.28
2023-05-06T06:59:52.415Z,101646.28
2023-05-06T07:02:22.006Z,101645.25
2023-05-06T07:04:51.155Z,101650.38
2023-05-06T07:07:17.644Z,101659.88
2023-05-06T07:09:44.430Z,101657.13
2023-05-06T07:12:11.433Z,101661.50
2023-05-06T07:14:37.971Z,101662.34
2023-05-06T07:17:04.579Z,101657.88
2023-05-06T07:19:33.655Z,101657.06
2023-05-06T07:22:00.949Z,101659.75
2023-05-06T07:24:27.401Z,101661.50
2023-05-06T07:26:53.890Z,101663.25
2023-05-06T07:29:20.604Z,101664.91
2023-05-06T07:31:47.008Z,101665.59
2023-05-06T07:34:13.549Z,101663.47
2023-05-06T07:36:43.398Z,101667.69
2023-05-06T07:39:12.488Z,101669.25
2023-05-06T07:41:38.973Z,101670.00
2023-05-06T07:44:06.700Z,101673.38
2023-05-06T07:46:33.688Z,101670.63
2023-05-06T07:49:00.286Z,101673.16
2023-05-06T07:51:27.029Z,101670.38
2023-05-06T07:54:02.595Z,101679.97
2023-05-06T07:56:29.146Z,101675.41
2023-05-06T07:58:56.120Z,101669.25
2023-05-06T08:01:22.558Z,101673.66
2023-05-06T08:03:49.108Z,101683.41
2023-05-06T08:06:15.617Z,101675.34
2023-05-06T08:08:42.443Z,101679.69
2023-05-06T08:11:08.910Z,101685.94
2023-05-06T08:13:35.281Z,101679.72
2023-05-06T08:16:02.915Z,101684.13
2023-05-06T08:18:30.003Z,101686.75
2023-05-06T08:20:56.511Z,101681.34
2023-05-06T08:23:23.146Z,101684.88
2023-05-06T08:25:49.759Z,101682.88
2023-05-06T08:28:17.821Z,101687.75
2023-05-06T08:30:47.641Z,101678.06
2023-05-06T08:33:14.461Z,101680.75
2023-05-06T08:35:40.992Z,101688.16
2023-05-06T08:38:07.422Z,101685.03
2023-05-06T08:40:34.814Z,101687.34
2023-05-06T08:43:03.339Z,101689.94
2023-05-06T08:45:30.254Z,101684.28
2023-05-06T08:47:56.878Z,101683.63
2023-05-06T08:50:24.677Z,101680.38
2023-05-06T08:52:51.836Z,101680.28
2023-05-06T08:55:19.247Z,101672.13
2023-05-06T08:57:49.369Z,101678.69
2023-05-06T09:00:16.095Z,101677.34
2023-05-06T09:02:43.444Z,101673.34
2023-05-06T09:05:11.428Z,101665.69
2023-05-06T09:07:40.208Z,101681.38
2023-05-06T09:10:14.362Z,101666.75
2023-05-06T09:12:41.584Z,101670.25
2023-05-06T09:15:09.664Z,101671.53
2023-05-06T09:17:36.633Z,101661.09
2023-05-06T09:20:03.772Z,101666.94
2023-05-06T09:22:31.190Z,101660.28
2023-05-06T09:24:58.476Z,101653.72
2023-05-06T09:27:29.785Z,101662.84
2023-05-06T09:30:05.477Z,101652.94
2023-05-06T09:32:32.744Z,101657.56
2023-05-06T09:35:00.338Z,101652.53
2023-05-06T09:37:27.238Z,101648.66
2023-05-06T09:39:55.798Z,101651.16
2023-05-06T09:42:26.797Z,101641.16
2023-05-06T09:44:55.018Z,101647.09
2023-05-06T09:47:23.035Z,101642.81
2023-05-06T09:49:49.579Z,101644.53
2023-05-06T09:52:16.399Z,101641.50
2023-05-06T09:54:43.294Z,101638.88
2023-05-06T09:57:10.467Z,101645.41
2023-05-06T09:59:38.012Z,101633.97
2023-05-06T10:02:05.868Z,101630.81
2023-05-06T10:04:37.396Z,101628.28
2023-05-06T10:07:05.050Z,101639.78
2023-05-06T10:09:33.034Z,101628.41
2023-05-06T10:12:00.829Z,101635.75
2023-05-06T10:14:27.353Z,101632.50
2023-05-06T10:16:54.924Z,101625.72
2023-05-06T10:19:25.782Z,101635.97
2023-05-06T10:22:04.441Z,101627.34
2023-05-06T10:24:37.975Z,101622.09
2023-05-06T10:27:06.339Z,101626.91
2023-05-06T10:29:37.741Z,101620.22
2023-05-06T10:32:05.195Z,101629.00
2023-05-06T10:34:38.292Z,101629.13
2023-05-06T10:37:06.313Z,101623.97
2023-05-06T10:39:33.008Z,101619.78
2023-05-06T10:41:59.791Z,101624.44
2023-05-06T10:45:03.080Z,101618.59
2023-05-06T10:47:58.485Z,101620.41
2023-05-06T10:50:27.659Z,101626.16
2023-05-06T10:52:56.496Z,101618.72
2023-05-06T10:55:34.480Z,101614.28
2023-05-06T10:58:11.974Z,101609.56
2023-05-06T11:00:38.550Z,101610.63
2023-05-06T11:03:11.168Z,101613.13
2023-05-06T11:05:48.968Z,101612.34
2023-05-06T11:08:21.404Z,101609.78
2023-05-06T11:10:47.933Z,101609.63
2023-05-06T11:13:28.890Z,101612.16
2023-05-06T11:15:57.470Z,101608.34
2023-05-06T11:18:38.066Z,101607.75
2023-05-06T11:21:30.408Z,101614.56
2023-05-06T11:23:59.556Z,101602.16
2023-05-06T11:26:27.307Z,101608.31
2023-05-06T11:28:55.861Z,101595.47
2023-05-06T11:31:22.809Z,101605.63
2023-05-06T11:33:53.130Z,101608.84
2023-05-06T11:36:21.398Z,101608.03
2023-05-06T11:38:56.468Z,101608.66
2023-05-06T11:41:23.324Z,101601.53
2023-05-06T11:43:51.896Z,101607.91
2023-05-06T11:46:19.404Z,101610.09
2023-05-06T11:48:46.571Z,101598.69
2023-05-06T11:51:13.744Z,101589.66
2023-05-06T11:53:40.147Z,101593.78
2023-05-06T11:56:07.788Z,101603.16
2023-05-06T11:58:34.389Z,101592.81
2023-05-06T12:01:02.335Z,101594.34
2023-05-06T12:03:31.716Z,101593.31
2023-05-06T12:05:59.473Z,101592.16
2023-05-06T12:08:36.205Z,101594.59
2023-05-06T12:11:05.370Z,101599.34
2023-05-06T12:13:32.411Z,101603.44
2023-05-06T12:15:59.958Z,101606.09
2023-05-06T12:18:27.571Z,101607.63
2023-05-06T12:21:00.959Z,101601.50
2023-05-06T12:23:27.412Z,101599.81
2023-05-06T12:26:02.795Z,101603.94
2023-05-06T12:28:30.806Z,101593.78
2023-05-06T12:30:57.372Z,101600.81
2023-05-06T12:33:24.155Z,101598.41
2023-05-06T12:35:54.780Z,101605.88
2023-05-06T12:38:21.461Z,101603.66
2023-05-06T12:40:54.937Z,101602.44
2023-05-06T12:43:30.574Z,101596.44
2023-05-06T12:46:05.094Z,101594.44
2023-05-06T12:48:31.660Z,101590.50
2023-05-06T12:50:58.130Z,101587.44
2023-05-06T12:53:33.635Z,101593.28
2023-05-06T12:56:00.186Z,101594.31
2023-05-06T12:58:26.771Z,101581.41
2023-05-06T13:00:53.195Z,101592.41
2023-05-06T13:03:19.697Z,101588.84
2023-05-06T13:05:48.217Z,101590.13
2023-05-06T13:08:14.612Z,101595.69
2023-05-06T13:10:40.992Z,101594.97
2023-05-06T13:13:07.851Z,101597.97
2023-05-06T13:15:35.632Z,101596.59
2023-05-06T13:18:02.172Z,101603.22
2023-05-06T13:20:28.692Z,101598.97
2023-05-06T13:22:55.407Z,101596.38
2023-05-06T13:25:22.336Z,101598.44
2023-05-06T13:27:49.180Z,101594.19
2023-05-06T13:30:15.797Z,101592.31
2023-05-06T13:32:42.802Z,101594.78
2023-05-06T13:35:09.895Z,101593.47
2023-05-06T13:37:36.486Z,101591.41
2023-05-06T13:40:03.480Z,101592.91
2023-05-06T13:42:29.923Z,101592.16
2023-05-06T13:44:57.475Z,101577.47
2023-05-06T13:47:24.308Z,101578.75
2023-05-06T13:49:51.136Z,101575.88
2023-05-06T13:52:17.531Z,101573.59
2023-05-06T13:54:44.882Z,101574.66
2023-05-06T13:57:11.272Z,101569.84
2023-05-06T13:59:37.663Z,101569.56
2023-05-06T14:02:08.782Z,101560.19
2023-05-06T14:04:36.059Z,101563.97
2023-05-06T14:07:02.532Z,101562.78
2023-05-06T14:09:29.110Z,101553.50
2023-05-06T14:11:58.450Z,101563.88
2023-05-06T14:14:26.839Z,101557.63
2023-05-06T14:16:55.125Z,101551.06
2023-05-06T14:19:25.566Z,101554.16
2023-05-06T14:21:52.074Z,101554.16
2023-05-06T14:24:18.591Z,101541.91
2023-05-06T14:26:46.172Z,101543.25
2023-05-06T14:29:13.695Z,101547.28
2023-05-06T14:31:40.298Z,101540.22
2023-05-06T14:34:06.862Z,101544.78
2023-05-06T14:36:33.474Z,101540.56
2023-05-06T14:39:00.083Z,101541.56
2023-05-06T14:41:26.667Z,101543.50
2023-05-06T14:43:53.221Z,101542.69
2023-05-06T14:46:19.848Z,101538.59
2023-05-06T14:48:46.605Z,101547.84
2023-05-06T14:51:13.155Z,101544.53
2023-05-06T14:53:43.529Z,101541.91
2023-05-06T14:56:10.918Z,101537.56
2023-05-06T14:58:39.133Z,101536.38
2023-05-06T15:01:05.871Z,101539.84
2023-05-06T15:03:32.476Z,101530.56
2023-05-06T15:05:58.935Z,101531.06
2023-05-06T15:08:26.340Z,101526.56
2023-05-06T15:10:53.296Z,101517.06
2023-05-06T15:13:19.698Z,101540.13
2023-05-06T15:15:46.138Z,101549.84
2023-05-06T15:18:13.351Z,101537.78
2023-05-06T15:20:40.092Z,101532.84
2023-05-06T15:23:09.321Z,101538.78
2023-05-06T15:25:36.659Z,101528.59
2023-05-06T15:28:04.911Z,101530.28
2023-05-06T15:30:36.530Z,101523.03
2023-05-06T15:33:03.053Z,101529.16
2023-05-06T15:35:31.300Z,101529.50
2023-05-06T15:37:58.938Z,101525.91
2023-05-06T15:40:26.303Z,101522.41
2023-05-06T15:42:52.751Z,101530.47
2023-05-06T15:45:19.658Z,101523.34
2023-05-06T15:47:47.984Z,101522.53
2023-05-06T15:50:29.030Z,101530.59
2023-05-06T15:52:59.617Z,101530.59
2023-05-06T15:55:26.688Z,101528.78
2023-05-06T15:57:54.543Z,101527.91
2023-05-06T16:00:22.187Z,101530.47
2023-05-06T16:02:48.788Z,101522.66
2023-05-06T16:05:15.874Z,101533.75
2023-05-06T16:07:42.524Z,101532.19
2023-05-06T16:10:11.769Z,101519.88
2023-05-06T16:12:38.827Z,101520.88
2023-05-06T16:15:05.753Z,101524.44
2023-05-06T16:17:37.459Z,101527.06
2023-05-06T16:20:05.485Z,101520.97
2023-05-06T16:22:34.308Z,101529.06
2023-05-06T16:25:00.893Z,101534.44
2023-05-06T16:27:29.919Z,101538.06
2023-05-06T16:29:56.389Z,101528.31
2023-05-06T16:32:23.436Z,101512.75
2023-05-06T16:34:50.116Z,101528.47
2023-05-06T16:37:16.697Z,101532.91
2023-05-06T16:39:43.171Z,101533.84
2023-05-06T16:42:09.761Z,101531.22
2023-05-06T16:44:36.371Z,101528.69
2023-05-06T16:47:02.933Z,101525.19
2023-05-06T16:49:31.367Z,101524.53
2023-05-06T16:52:00.672Z,101520.22
2023-05-06T16:54:28.301Z,101524.88
2023-05-06T16:56:55.047Z,101526.88
2023-05-06T16:59:22.425Z,101527.09
2023-05-06T17:01:49.625Z,101529.00
2023-05-06T17:04:18.837Z,101524.69
2023-05-06T17:06:45.673Z,101523.91
2023-05-06T17:09:14.317Z,101527.66
2023-05-06T17:11:40.778Z,101519.75
2023-05-06T17:14:07.199Z,101524.41
2023-05-06T17:16:33.691Z,101521.84
2023-05-06T17:19:00.249Z,101523.81
2023-05-06T17:21:27.761Z,101523.94
2023-05-06T17:23:54.478Z,101525.09
2023-05-06T17:26:21.890Z,101521.91
2023-05-06T17:28:48.566Z,101518.44
2023-05-06T17:31:16.036Z,101518.56
2023-05-06T17:33:42.889Z,101524.84
2023-05-06T17:36:09.349Z,101525.00
2023-05-06T17:38:35.761Z,101516.41
2023-05-06T17:41:02.120Z,101521.03
2023-05-06T17:43:28.841Z,101524.91
2023-05-06T17:45:55.893Z,101526.88
2023-05-06T17:48:22.686Z,101525.44
2023-05-06T17:50:49.097Z,101536.41
2023-05-06T17:53:15.559Z,101549.19
2023-05-06T17:55:42.038Z,101570.28
2023-05-06T17:58:08.456Z,101580.03
2023-05-06T18:00:34.946Z,101577.31
2023-05-06T18:03:01.577Z,101582.56
2023-05-06T18:05:28.153Z,101583.38
2023-05-06T18:07:54.608Z,101579.66
2023-05-06T18:10:21.241Z,101583.94
2023-05-06T18:12:50.636Z,101577.44
2023-05-06T18:15:17.188Z,101580.56
2023-05-06T18:17:43.840Z,101566.66
2023-05-06T18:20:10.890Z,101565.09
2023-05-06T18:22:38.994Z,101567.84
2023-05-06T18:25:06.369Z,101568.91
2023-05-06T18:27:32.780Z,101572.69
2023-05-06T18:29:59.409Z,101576.41
2023-05-06T18:32:26.106Z,101572.09
2023-05-06T18:34:52.591Z,101574.88
2023-05-06T18:37:18.919Z,101578.41
2023-05-06T18:39:45.634Z,101574.09
2023-05-06T18:42:12.246Z,101582.13
2023-05-06T18:44:38.711Z,101584.78
2023-05-06T18:47:05.525Z,101585.72
2023-05-06T18:49:32.121Z,101592.72
2023-05-06T18:51:58.663Z,101593.53
2023-05-06T18:54:25.177Z,101589.13
2023-05-06T18:56:51.885Z,101603.25
2023-05-06T18:59:20.067Z,101605.00
2023-05-06T19:01:46.884Z,101604.94
2023-05-06T19:04:13.654Z,101611.25
2023-05-06T19:06:40.213Z,101609.50
2023-05-06T19:09:08.035Z,101614.00
2023-05-06T19:11:34.915Z,101609.56
2023-05-06T19:14:01.530Z,101611.41
2023-05-06T19:16:28.359Z,101615.00
2023-05-06T19:18:54.909Z,101605.31
2023-05-06T19:21:21.763Z,101616.00
2023-05-06T19:23:48.274Z,101611.53
2023-05-06T19:26:17.424Z,101608.88
2023-05-06T19:28:44.055Z,101616.81
2023-05-06T19:31:10.684Z,101610.53
2023-05-06T19:33:37.851Z,101618.50
2023-05-06T19:36:07.791Z,101616.69
2023-05-06T19:38:34.657Z,101616.69
2023-05-06T19:41:01.606Z,101610.44
2023-05-06T19:43:28.062Z,101613.09
2023-05-06T19:45:54.512Z,101605.97
2023-05-06T19:48:22.178Z,101609.56
2023-05-06T19:50:48.751Z,101608.72
2023-05-06T19:53:15.348Z,101614.03
2023-05-06T19:55:41.790Z,101606.09
2023-05-06T19:58:08.274Z,101607.94
2023-05-06T20:00:34.829Z,101608.00
2023-05-06T20:03:10.475Z,101609.75
2023-05-06T20:05:36.904Z,101597.41
2023-05-06T20:08:03.532Z,101595.66
2023-05-06T20:10:30.184Z,101602.78
2023-05-06T20:12:57.766Z,101613.38
2023-05-06T20:15:24.968Z,101609.91
2023-05-06T20:17:51.497Z,101608.22
2023-05-06T20:20:19.101Z,101614.44
2023-05-06T20:22:45.582Z,101608.25
2023-05-06T20:25:16.135Z,101613.59
2023-05-06T20:27:43.470Z,101592.44
2023-05-06T20:30:10.545Z,101600.44
2023-05-06T20:32:38.153Z,101604.88
2023-05-06T20:35:05.377Z,101604.94
2023-05-06T20:37:33.893Z,101604.06
2023-05-06T20:40:00.647Z,101606.72
2023-05-06T20:42:27.706Z,101609.47
2023-05-06T20:44:54.281Z,101606.81
2023-05-06T20:47:20.863Z,101606.03
2023-05-06T20:49:47.479Z,101608.75
2023-05-06T20:52:17.434Z,101607.94
2023-05-06T20:54:45.197Z,101616.84
2023-05-06T20:57:13.876Z,101607.97
2023-05-06T20:59:40.268Z,101608.03
2023-05-06T21:02:06.767Z,101605.38
2023-05-06T21:04:33.465Z,101610.69
2023-05-06T21:06:59.966Z,101601.88
2023-05-06T21:09:29.818Z,101600.13
2023-05-06T21:12:00.870Z,101601.97
2023-05-06T21:14:27.407Z,101609.09
2023-05-06T21:16:53.953Z,101601.13
2023-05-06T21:19:20.617Z,101598.50
2023-05-06T21:21:48.675Z,101601.22
2023-05-06T21:24:15.405Z,101595.03
2023-05-06T21:26:41.868Z,101579.16
2023-05-06T21:29:08.286Z,101587.03
2023-05-06T21:31:34.969Z,101594.16
2023-05-06T21:34:01.542Z,101596.84
2023-05-06T21:36:27.970Z,101588.91
2023-05-06T21:39:11.966Z,101588.94
2023-05-06T21:41:39.305Z,101586.34
2023-05-06T21:44:08.265Z,101592.56
2023-05-06T21:46:34.980Z,101591.69
2023-05-06T21:49:04.275Z,101602.34
2023-05-06T21:51:36.009Z,101603.25
2023-05-06T21:54:07.238Z,101604.19
2023-05-06T21:56:33.822Z,101606.00
2023-05-06T21:59:00.472Z,101597.19
2023-05-06T22:01:27.020Z,101597.19
2023-05-06T22:03:53.959Z,101595.47
2023-05-06T22:06:20.967Z,101602.56
2023-05-06T22:08:47.638Z,101591.97
2023-05-06T22:11:14.214Z,101593.75
2023-05-06T22:13:40.718Z,101588.44
2023-05-06T22:16:07.838Z,101588.44
2023-05-06T22:18:36.034Z,101591.09
2023-05-06T22:21:03.202Z,101584.06
2023-05-06T22:23:29.759Z,101585.84
2023-05-06T22:25:57.430Z,101592.88
2023-05-06T22:28:24.851Z,101600.84
2023-05-06T22:30:51.361Z,101595.53
2023-05-06T22:33:17.734Z,101593.78
2023-05-06T22:35:47.316Z,101607.03
2023-05-06T22:38:16.695Z,101607.94
2023-05-06T22:40:43.039Z,101607.97
2023-05-06T22:43:09.466Z,101607.09
2023-05-06T22:45:36.160Z,101614.25
2023-05-06T22:48:02.616Z,101605.41
2023-05-06T22:50:29.354Z,101610.72
2023-05-06T22:52:55.835Z,101607.22
2023-05-06T22:55:22.660Z,101612.50
2023-05-06T22:57:53.816Z,101613.38
2023-05-06T23:00:20.437Z,101619.59
2023-05-06T23:02:47.260Z,101623.13
2023-05-06T23:05:14.203Z,101621.34
2023-05-06T23:07:41.128Z,101614.28
2023-05-06T23:10:09.241Z,101611.66
2023-05-06T23:12:36.010Z,101611.66
2023-05-06T23:15:02.782Z,101611.69
2023-05-06T23:17:29.262Z,101612.56
2023-05-06T23:19:55.815Z,101609.91
2023-05-06T23:22:22.385Z,101620.53
2023-05-06T23:24:49.853Z,101613.47
2023-05-06T23:27:16.601Z,101619.66
2023-05-06T23:29:43.208Z,101617.03
2023-05-06T23:32:09.712Z,101613.47
2023-05-06T23:34:36.143Z,101617.03
2023-05-06T23:37:02.517Z,101615.31
2023-05-06T23:39:28.929Z,101625.97
2023-05-06T23:41:55.366Z,101621.56
2023-05-06T23:44:22.527Z,101626.84
2023-05-06T23:46:48.975Z,101625.09
2023-05-06T23:49:15.695Z,101602.16
2023-05-06T23:51:42.093Z,101624.22
2023-05-06T23:54:08.486Z,101617.13
2023-05-06T23:56:34.957Z,101622.47
2023-05-06T23:59:01.506Z,101612.75
